createdAt,value
2018-04-14T00:06:20.588Z,7.90
2018-04-14T00:06:55.076Z,7.90
2018-04-14T00:07:28.791Z,7.90
2018-04-14T00:08:03.315Z,7.90
2018-04-14T00:08:37.046Z,7.90
2018-04-14T00:09:10.788Z,7.90
2018-04-14T00:09:45.294Z,7.90
2018-04-14T00:10:19.804Z,7.90
2018-04-14T00:10:54.289Z,7.90
2018-04-14T00:11:28.023Z,7.80
2018-04-14T00:12:01.483Z,7.90
2018-04-14T00:12:35.979Z,7.90
2018-04-14T00:13:10.461Z,7.90
2018-04-14T00:13:44.203Z,7.90
2018-04-14T00:14:17.926Z,7.80
2018-04-14T00:14:51.684Z,7.90
2018-04-14T00:15:26.195Z,7.90
2018-04-14T00:16:00.695Z,7.90
2018-04-14T00:16:34.859Z,7.90
2018-04-14T00:17:08.590Z,7.90
2018-04-14T00:17:43.121Z,7.90
2018-04-14T00:18:16.847Z,7.90
2018-04-14T00:18:50.568Z,7.90
2018-04-14T00:19:25.082Z,7.90
2018-04-14T00:19:59.588Z,7.90
2018-04-14T00:20:33.313Z,7.90
2018-04-14T00:21:07.045Z,7.90
2018-04-14T00:21:40.771Z,7.90
2018-04-14T00:22:14.509Z,7.90
2018-04-14T00:22:48.234Z,7.90
2018-04-14T00:23:21.956Z,7.90
2018-04-14T00:23:55.697Z,7.90
2018-04-14T00:24:30.955Z,7.90
2018-04-14T00:25:05.465Z,7.90
2018-04-14T00:25:39.959Z,7.90
2018-04-14T00:26:13.688Z,7.90
2018-04-14T00:26:47.429Z,7.90
2018-04-14T00:27:21.151Z,7.90
2018-04-14T00:27:55.649Z,7.90
2018-04-14T00:28:30.137Z,7.90
2018-04-14T00:29:03.867Z,7.90
2018-04-14T00:29:38.359Z,7.90
2018-04-14T00:30:12.883Z,7.90
2018-04-14T00:30:46.623Z,7.90
2018-04-14T00:31:20.360Z,7.90
2018-04-14T00:31:54.852Z,7.90
2018-04-14T00:32:29.353Z,7.90
2018-04-14T00:33:03.099Z,7.90
2018-04-14T00:33:36.820Z,7.90
2018-04-14T00:34:10.544Z,7.90
2018-04-14T00:34:45.047Z,7.90
2018-04-14T00:35:18.796Z,7.90
2018-04-14T00:35:52.536Z,7.90
2018-04-14T00:36:27.033Z,7.90
2018-04-14T00:37:00.782Z,7.90
2018-04-14T00:37:34.512Z,7.90
2018-04-14T00:38:08.239Z,7.90
2018-04-14T00:38:41.981Z,7.90
2018-04-14T00:39:16.388Z,7.90
2018-04-14T00:39:49.776Z,7.90
2018-04-14T00:40:23.540Z,7.90
2018-04-14T00:40:57.256Z,7.90
2018-04-14T00:41:30.994Z,7.90
2018-04-14T00:42:04.721Z,7.90
2018-04-14T00:42:38.444Z,7.90
2018-04-14T00:43:12.952Z,7.90
2018-04-14T00:43:47.444Z,7.90
2018-04-14T00:44:21.172Z,7.90
2018-04-14T00:44:54.930Z,7.90
2018-04-14T00:45:28.642Z,7.90
2018-04-14T00:46:03.167Z,7.90
2018-04-14T00:46:36.906Z,7.90
2018-04-14T00:47:10.632Z,7.90
2018-04-14T00:47:45.133Z,7.90
2018-04-14T00:48:18.876Z,7.90
2018-04-14T00:48:52.622Z,7.90
2018-04-14T00:49:26.533Z,7.90
2018-04-14T00:50:00.300Z,7.90
2018-04-14T00:50:34.068Z,7.90
2018-04-14T00:51:08.494Z,7.90
2018-04-14T00:51:42.225Z,7.90
2018-04-14T00:52:15.945Z,7.90
2018-04-14T00:52:49.685Z,7.90
2018-04-14T00:53:35.051Z,7.90
2018-04-14T00:54:09.542Z,8.00
2018-04-14T00:54:43.047Z,8.00
2018-04-14T00:55:17.332Z,8.00
2018-04-14T00:55:50.840Z,8.00
2018-04-14T00:56:24.778Z,8.10
2018-04-14T00:56:58.303Z,8.10
2018-04-14T00:57:32.795Z,8.10
2018-04-14T00:58:06.292Z,8.10
2018-04-14T00:58:39.788Z,8.10
2018-04-14T00:59:14.292Z,8.20
2018-04-14T00:59:48.792Z,8.20
2018-04-14T01:00:22.582Z,8.20
2018-04-14T01:00:55.980Z,8.20
2018-04-14T01:01:30.480Z,8.30
2018-04-14T01:02:04.212Z,8.30
2018-04-14T01:02:37.963Z,8.30
2018-04-14T01:03:11.698Z,8.30
2018-04-14T01:03:45.432Z,8.30
2018-04-14T01:04:19.160Z,8.30
2018-04-14T01:04:52.910Z,8.30
2018-04-14T01:05:26.675Z,8.40
2018-04-14T01:06:00.409Z,8.40
2018-04-14T01:06:34.894Z,8.40
2018-04-14T01:07:08.644Z,8.40
2018-04-14T01:07:42.379Z,8.40
2018-04-14T01:08:15.773Z,8.50
2018-04-14T01:08:49.494Z,8.50
2018-04-14T01:09:23.249Z,8.50
2018-04-14T01:09:56.977Z,8.50
2018-04-14T01:10:31.490Z,8.50
2018-04-14T01:11:04.874Z,8.50
2018-04-14T01:11:38.599Z,8.50
2018-04-14T01:12:12.323Z,8.60
2018-04-14T01:12:46.047Z,8.60
2018-04-14T01:13:19.783Z,8.60
2018-04-14T01:13:53.506Z,8.60
2018-04-14T01:14:27.998Z,8.60
2018-04-14T01:15:01.715Z,8.60
2018-04-14T01:15:36.250Z,8.60
2018-04-14T01:16:09.985Z,8.60
2018-04-14T01:16:43.756Z,8.70
2018-04-14T01:17:17.489Z,8.70
2018-04-14T01:17:51.999Z,8.70
2018-04-14T01:18:26.501Z,8.70
2018-04-14T01:18:59.955Z,8.70
2018-04-14T01:19:33.114Z,8.70
2018-04-14T01:20:06.850Z,8.70
2018-04-14T01:20:40.337Z,8.80
2018-04-14T01:21:14.068Z,8.80
2018-04-14T01:21:47.810Z,8.80
2018-04-14T01:22:21.542Z,8.80
2018-04-14T01:22:55.277Z,8.80
2018-04-14T01:23:28.678Z,8.80
2018-04-14T01:24:02.417Z,8.80
2018-04-14T01:24:35.916Z,8.80
2018-04-14T01:25:09.656Z,8.90
2018-04-14T01:25:43.546Z,8.90
2018-04-14T01:26:17.291Z,8.90
2018-04-14T01:26:51.027Z,8.90
2018-04-14T01:27:24.482Z,8.90
2018-04-14T01:27:58.205Z,8.90
2018-04-14T01:28:31.943Z,8.90
2018-04-14T01:29:05.844Z,8.90
2018-04-14T01:29:39.557Z,9.00
2018-04-14T01:30:13.287Z,9.00
2018-04-14T01:30:47.797Z,9.00
2018-04-14T01:31:22.302Z,9.00
2018-04-14T01:31:56.792Z,9.00
2018-04-14T01:32:30.555Z,9.10
2018-04-14T01:33:04.867Z,9.10
2018-04-14T01:33:38.595Z,9.10
2018-04-14T01:34:13.110Z,9.10
2018-04-14T01:34:46.578Z,9.10
2018-04-14T01:35:20.307Z,9.10
2018-04-14T01:35:54.050Z,9.10
2018-04-14T01:36:27.782Z,9.10
2018-04-14T01:37:01.237Z,9.10
2018-04-14T01:37:35.733Z,9.20
2018-04-14T01:38:09.464Z,9.20
2018-04-14T01:38:42.928Z,9.20
2018-04-14T01:39:16.384Z,9.20
2018-04-14T01:39:50.606Z,9.30
2018-04-14T01:40:24.348Z,9.20
2018-04-14T01:40:58.098Z,9.30
2018-04-14T01:41:32.375Z,9.30
2018-04-14T01:42:05.239Z,9.30
2018-04-14T01:42:38.748Z,9.30
2018-04-14T01:43:12.490Z,9.30
2018-04-14T01:43:46.226Z,9.30
2018-04-14T01:44:19.960Z,9.30
2018-04-14T01:44:53.424Z,9.30
2018-04-14T01:45:27.694Z,9.40
2018-04-14T01:46:01.448Z,9.40
2018-04-14T01:46:34.918Z,9.40
2018-04-14T01:47:08.642Z,9.40
2018-04-14T01:47:42.373Z,9.40
2018-04-14T01:48:16.863Z,9.40
2018-04-14T01:48:50.606Z,9.40
2018-04-14T01:49:24.059Z,9.50
2018-04-14T01:49:57.524Z,9.50
2018-04-14T01:50:31.256Z,9.50
2018-04-14T01:51:05.022Z,9.50
2018-04-14T01:51:38.476Z,9.50
2018-04-14T01:52:11.872Z,9.50
2018-04-14T01:52:45.340Z,9.50
2018-04-14T01:53:19.568Z,9.60
2018-04-14T01:53:53.298Z,9.60
2018-04-14T01:54:27.026Z,9.60
2018-04-14T01:55:00.472Z,9.60
2018-04-14T01:55:33.914Z,9.60
2018-04-14T01:56:07.660Z,9.60
2018-04-14T01:56:41.406Z,9.60
2018-04-14T01:57:14.849Z,9.60
2018-04-14T01:57:48.591Z,9.70
2018-04-14T01:58:23.282Z,9.70
2018-04-14T01:58:57.012Z,9.70
2018-04-14T01:59:30.466Z,9.70
2018-04-14T02:00:03.528Z,9.70
2018-04-14T02:00:37.421Z,9.70
2018-04-14T02:01:11.658Z,9.80
2018-04-14T02:01:46.166Z,9.80
2018-04-14T02:02:19.636Z,9.80
2018-04-14T02:02:54.142Z,9.80
2018-04-14T02:03:27.586Z,9.80
2018-04-14T02:04:01.041Z,9.80
2018-04-14T02:04:34.511Z,9.80
2018-04-14T02:05:07.632Z,9.80
2018-04-14T02:05:41.100Z,9.80
2018-04-14T02:06:14.575Z,9.80
2018-04-14T02:06:47.695Z,9.90
2018-04-14T02:07:21.424Z,9.80
2018-04-14T02:07:54.893Z,9.80
2018-04-14T02:08:28.619Z,9.80
2018-04-14T02:09:02.024Z,9.80
2018-04-14T02:09:35.492Z,9.90
2018-04-14T02:10:08.949Z,9.90
2018-04-14T02:10:42.400Z,9.90
2018-04-14T02:11:15.929Z,9.90
2018-04-14T02:11:50.196Z,9.90
2018-04-14T02:12:24.227Z,9.90
2018-04-14T02:12:58.731Z,9.90
2018-04-14T02:13:33.222Z,9.90
2018-04-14T02:14:06.675Z,9.90
2018-04-14T02:14:40.141Z,10.00
2018-04-14T02:15:13.591Z,10.00
2018-04-14T02:15:48.101Z,10.00
2018-04-14T02:16:21.599Z,10.00
2018-04-14T02:16:55.328Z,10.00
2018-04-14T02:17:28.818Z,10.00
2018-04-14T02:18:02.556Z,10.00
2018-04-14T02:18:37.756Z,10.00
2018-04-14T02:19:11.494Z,10.00
2018-04-14T02:19:45.240Z,10.00
2018-04-14T02:20:18.707Z,10.00
2018-04-14T02:20:52.430Z,10.00
2018-04-14T02:21:25.919Z,10.00
2018-04-14T02:21:59.379Z,10.00
2018-04-14T02:22:33.119Z,10.10
2018-04-14T02:23:06.579Z,10.10
2018-04-14T02:23:41.132Z,10.10
2018-04-14T02:24:14.865Z,10.10
2018-04-14T02:24:48.591Z,10.10
2018-04-14T02:25:22.058Z,10.10
2018-04-14T02:25:56.566Z,10.20
2018-04-14T02:26:30.044Z,10.20
2018-04-14T02:27:04.557Z,10.20
2018-04-14T02:27:38.019Z,10.20
2018-04-14T02:28:12.263Z,10.20
2018-04-14T02:28:45.728Z,10.20
2018-04-14T02:29:20.227Z,10.20
2018-04-14T02:29:53.959Z,10.20
2018-04-14T02:30:27.691Z,10.20
2018-04-14T02:31:01.174Z,10.20
2018-04-14T02:31:35.464Z,10.30
2018-04-14T02:32:08.917Z,10.30
2018-04-14T02:32:42.392Z,10.30
2018-04-14T02:33:16.128Z,10.30
2018-04-14T02:33:50.354Z,10.30
2018-04-14T02:34:23.860Z,10.30
2018-04-14T02:34:58.346Z,10.30
2018-04-14T02:35:32.569Z,10.30
2018-04-14T02:36:06.030Z,10.30
2018-04-14T02:36:40.296Z,10.40
2018-04-14T02:37:13.520Z,10.40
2018-04-14T02:37:47.267Z,10.40
2018-04-14T02:38:21.006Z,10.40
2018-04-14T02:38:54.458Z,10.40
2018-04-14T02:39:28.706Z,10.40
2018-04-14T02:40:03.223Z,10.40
2018-04-14T02:40:36.684Z,10.40
2018-04-14T02:41:10.430Z,10.40
2018-04-14T02:41:44.014Z,10.40
2018-04-14T02:42:17.252Z,10.40
2018-04-14T02:42:50.733Z,10.40
2018-04-14T02:43:24.206Z,10.40
2018-04-14T02:43:58.422Z,10.40
2018-04-14T02:44:31.889Z,10.40
2018-04-14T02:45:06.116Z,10.50
2018-04-14T02:45:39.573Z,10.40
2018-04-14T02:46:13.800Z,10.50
2018-04-14T02:46:47.288Z,10.50
2018-04-14T02:47:20.751Z,10.50
2018-04-14T02:47:54.977Z,10.50
2018-04-14T02:48:28.442Z,10.50
2018-04-14T02:49:01.898Z,10.50
2018-04-14T02:49:36.124Z,10.50
2018-04-14T02:50:10.354Z,10.60
2018-04-14T02:50:43.843Z,10.60
2018-04-14T02:51:17.596Z,10.60
2018-04-14T02:51:51.830Z,10.60
2018-04-14T02:52:25.290Z,10.60
2018-04-14T02:52:58.760Z,10.60
2018-04-14T02:53:33.000Z,10.70
2018-04-14T02:54:06.454Z,10.70
2018-04-14T02:54:40.184Z,10.70
2018-04-14T02:55:13.635Z,10.70
2018-04-14T02:55:47.860Z,10.70
2018-04-14T02:56:21.322Z,10.70
2018-04-14T02:56:55.554Z,10.80
2018-04-14T02:57:29.008Z,10.80
2018-04-14T02:58:03.227Z,10.80
2018-04-14T02:58:36.693Z,10.80
2018-04-14T02:59:10.960Z,10.80
2018-04-14T02:59:44.642Z,10.80
2018-04-14T03:00:18.451Z,10.80
2018-04-14T03:00:52.804Z,10.80
2018-04-14T03:01:26.974Z,10.90
2018-04-14T03:02:00.446Z,10.80
2018-04-14T03:02:33.892Z,10.90
2018-04-14T03:03:07.347Z,10.90
2018-04-14T03:03:40.805Z,10.90
2018-04-14T03:46:01.663Z,10.90
2018-04-14T03:46:35.083Z,11.60
2018-04-14T03:47:08.827Z,11.50
2018-04-14T03:47:42.550Z,11.50
2018-04-14T03:48:16.296Z,11.50
2018-04-14T03:48:50.028Z,11.50
2018-04-14T03:49:23.769Z,11.50
2018-04-14T03:49:57.000Z,11.40
2018-04-14T03:50:30.730Z,11.40
2018-04-14T03:51:04.200Z,11.40
2018-04-14T03:51:37.930Z,11.40
2018-04-14T03:52:11.651Z,11.40
2018-04-14T03:52:45.378Z,11.30
2018-04-14T03:53:18.854Z,11.30
2018-04-14T03:53:52.583Z,11.30
2018-04-14T03:54:26.331Z,11.30
2018-04-14T03:55:00.246Z,11.30
2018-04-14T03:55:33.704Z,11.30
2018-04-14T03:56:07.436Z,11.30
2018-04-14T03:56:41.934Z,11.30
2018-04-14T03:57:15.400Z,11.30
2018-04-14T03:57:48.870Z,11.30
2018-04-14T03:58:23.104Z,11.30
2018-04-14T03:58:56.558Z,11.30
2018-04-14T03:59:30.794Z,11.30
2018-04-14T04:00:03.600Z,11.30
2018-04-14T04:00:37.056Z,11.40
2018-04-14T04:01:10.516Z,11.40
2018-04-14T04:01:43.998Z,11.40
2018-04-14T04:02:18.222Z,11.40
2018-04-14T04:02:51.719Z,11.40
2018-04-14T04:03:25.184Z,11.50
2018-04-14T04:03:58.312Z,11.40
2018-04-14T04:04:31.779Z,11.40
2018-04-14T04:05:05.228Z,11.40
2018-04-14T04:05:38.696Z,11.40
2018-04-14T04:06:12.934Z,11.50
2018-04-14T04:06:46.412Z,11.50
2018-04-14T04:07:19.875Z,11.50
2018-04-14T04:07:53.376Z,11.40
2018-04-14T04:08:26.838Z,11.40
2018-04-14T04:09:00.740Z,11.40
2018-04-14T04:09:34.194Z,11.40
2018-04-14T04:10:07.655Z,11.40
2018-04-14T04:10:41.108Z,11.40
2018-04-14T04:11:14.566Z,11.40
2018-04-14T04:11:48.790Z,11.40
2018-04-14T04:12:22.260Z,11.40
2018-04-14T04:12:55.764Z,11.40
2018-04-14T04:13:28.896Z,11.40
2018-04-14T04:14:02.360Z,11.40
2018-04-14T04:14:35.821Z,11.30
2018-04-14T04:15:09.292Z,11.30
2018-04-14T04:15:42.818Z,11.30
2018-04-14T04:16:17.185Z,11.30
2018-04-14T04:16:50.653Z,11.30
2018-04-14T04:17:24.110Z,11.30
2018-04-14T04:17:57.622Z,11.30
2018-04-14T04:18:42.352Z,11.30
2018-04-14T04:19:27.004Z,11.30
2018-04-14T04:20:12.517Z,11.20
2018-04-14T04:20:57.142Z,11.20
2018-04-14T04:21:41.712Z,11.20
2018-04-14T04:22:26.304Z,11.20
2018-04-14T04:23:20.621Z,11.20
2018-04-14T04:24:05.256Z,11.20
2018-04-14T04:24:49.834Z,11.20
2018-04-14T04:25:30.118Z,11.20
2018-04-14T04:26:03.841Z,11.20
2018-04-14T04:26:37.301Z,11.20
2018-04-14T04:27:11.518Z,11.20
2018-04-14T04:27:44.969Z,11.20
2018-04-14T04:28:18.446Z,11.20
2018-04-14T04:28:52.185Z,11.20
2018-04-14T04:29:25.648Z,11.20
2018-04-14T04:29:59.646Z,11.20
2018-04-14T04:30:33.869Z,11.20
2018-04-14T04:31:07.332Z,11.20
2018-04-14T04:31:40.802Z,11.20
2018-04-14T04:32:15.041Z,11.20
2018-04-14T04:32:48.285Z,11.20
2018-04-14T04:33:21.774Z,11.30
2018-04-14T04:33:56.003Z,11.30
2018-04-14T04:34:29.463Z,11.20
2018-04-14T04:35:03.705Z,11.30
2018-04-14T04:35:37.158Z,11.30
2018-04-14T04:36:11.384Z,11.30
2018-04-14T04:36:44.844Z,11.30
2018-04-14T04:37:19.071Z,11.30
2018-04-14T04:37:52.529Z,11.30
2018-04-14T04:38:26.273Z,11.30
2018-04-14T04:38:59.741Z,11.40
2018-04-14T04:39:33.217Z,11.40
2018-04-14T04:40:06.689Z,11.40
2018-04-14T04:40:40.167Z,11.40
2018-04-14T04:41:13.630Z,11.40
2018-04-14T04:41:47.861Z,11.40
2018-04-14T04:42:21.320Z,11.30
2018-04-14T04:42:55.053Z,11.30
2018-04-14T04:43:28.541Z,11.30
2018-04-14T04:44:02.008Z,11.30
2018-04-14T04:44:35.467Z,11.30
2018-04-14T04:45:08.915Z,11.30
2018-04-14T04:45:42.378Z,11.40
2018-04-14T04:46:15.839Z,11.40
2018-04-14T04:46:49.571Z,11.40
2018-04-14T04:47:23.038Z,11.40
2018-04-14T04:47:57.548Z,11.40
2018-04-14T04:48:31.050Z,11.40
2018-04-14T04:49:04.515Z,11.40
2018-04-14T04:49:37.979Z,11.40
2018-04-14T04:50:11.429Z,11.50
2018-04-14T04:50:44.883Z,11.50
2018-04-14T04:51:18.359Z,11.50
2018-04-14T04:51:51.817Z,11.50
2018-04-14T04:52:25.289Z,11.50
2018-04-14T04:52:59.511Z,11.50
2018-04-14T04:53:33.011Z,11.50
2018-04-14T04:54:06.473Z,11.50
2018-04-14T04:54:40.697Z,11.50
2018-04-14T04:55:14.143Z,11.50
2018-04-14T04:55:48.359Z,11.50
2018-04-14T04:56:22.087Z,11.50
2018-04-14T04:56:55.538Z,11.50
2018-04-14T04:57:28.780Z,11.50
2018-04-14T04:58:02.531Z,11.50
2018-04-14T04:58:36.634Z,11.50
2018-04-14T04:59:09.874Z,11.60
2018-04-14T04:59:43.875Z,11.60
2018-04-14T05:00:18.117Z,11.60
2018-04-14T05:00:51.581Z,11.60
2018-04-14T05:01:25.053Z,11.60
2018-04-14T05:01:58.276Z,11.60
2018-04-14T05:02:31.515Z,11.60
2018-04-14T05:03:05.756Z,11.60
2018-04-14T05:03:39.259Z,11.60
2018-04-14T05:04:12.719Z,11.60
2018-04-14T05:04:46.169Z,11.60
2018-04-14T05:05:20.380Z,11.60
2018-04-14T05:05:53.829Z,11.60
2018-04-14T05:06:27.287Z,11.70
2018-04-14T05:07:00.741Z,11.70
2018-04-14T05:07:34.201Z,11.70
2018-04-14T05:08:08.433Z,11.70
2018-04-14T05:08:41.928Z,11.70
2018-04-14T05:09:15.381Z,11.70
2018-04-14T05:09:49.611Z,11.70
2018-04-14T05:10:23.067Z,11.80
2018-04-14T05:10:57.291Z,11.80
2018-04-14T05:11:31.787Z,11.80
2018-04-14T05:12:05.241Z,11.80
2018-04-14T05:12:38.960Z,11.80
2018-04-14T05:13:12.409Z,11.80
2018-04-14T05:13:46.150Z,11.80
2018-04-14T05:14:19.611Z,11.80
2018-04-14T05:14:53.329Z,11.80
2018-04-14T05:15:27.813Z,11.80
2018-04-14T05:16:01.269Z,11.80
2018-04-14T05:16:34.721Z,11.80
2018-04-14T05:17:08.171Z,11.80
2018-04-14T05:17:41.639Z,11.80
2018-04-14T05:18:15.857Z,11.90
2018-04-14T05:18:49.321Z,11.80
2018-04-14T05:19:23.548Z,11.90
2018-04-14T05:19:56.997Z,11.90
2018-04-14T05:20:30.447Z,11.90
2018-04-14T05:21:03.903Z,11.90
2018-04-14T05:21:37.367Z,11.90
2018-04-14T05:22:11.600Z,11.90
2018-04-14T05:22:45.069Z,11.90
2018-04-14T05:23:18.521Z,11.90
2018-04-14T05:23:52.791Z,12.00
2018-04-14T05:24:26.024Z,12.00
2018-04-14T05:25:00.257Z,12.00
2018-04-14T05:25:33.743Z,12.00
2018-04-14T05:26:07.201Z,12.10
2018-04-14T05:26:40.667Z,12.10
2018-04-14T05:27:14.164Z,12.10
2018-04-14T05:27:48.381Z,12.20
2018-04-14T05:28:21.841Z,12.20
2018-04-14T05:28:55.321Z,12.30
2018-04-14T05:29:28.771Z,12.30
2018-04-14T05:30:02.223Z,12.30
2018-04-14T05:30:35.689Z,12.30
2018-04-14T05:31:09.901Z,12.40
2018-04-14T05:31:43.029Z,12.40
2018-04-14T05:32:16.485Z,12.40
2018-04-14T05:32:49.962Z,12.40
2018-04-14T05:33:23.415Z,12.50
2018-04-14T05:33:57.673Z,12.50
2018-04-14T05:34:31.133Z,12.50
2018-04-14T05:35:04.261Z,12.50
2018-04-14T05:35:37.717Z,12.50
2018-04-14T05:36:11.171Z,12.50
2018-04-14T05:36:44.625Z,12.50
2018-04-14T05:37:18.863Z,12.60
2018-04-14T05:37:52.319Z,12.60
2018-04-14T05:38:26.543Z,12.60
2018-04-14T05:39:00.034Z,12.60
2018-04-14T05:39:33.495Z,12.60
2018-04-14T05:40:07.730Z,12.60
2018-04-14T05:40:41.220Z,12.60
2018-04-14T05:41:14.677Z,12.60
2018-04-14T05:41:48.153Z,12.60
2018-04-14T05:42:22.394Z,12.70
2018-04-14T05:42:55.853Z,12.70
2018-04-14T05:43:29.324Z,12.70
2018-04-14T05:44:03.577Z,12.70
2018-04-14T05:44:37.043Z,12.70
2018-04-14T05:45:10.509Z,12.70
2018-04-14T05:45:43.981Z,12.80
2018-04-14T05:46:18.215Z,12.80
2018-04-14T05:46:51.685Z,12.80
2018-04-14T05:47:25.139Z,12.80
2018-04-14T05:47:59.387Z,12.80
2018-04-14T05:48:32.877Z,12.80
2018-04-14T05:49:06.368Z,12.80
2018-04-14T05:49:39.839Z,12.90
2018-04-14T05:50:13.301Z,12.90
2018-04-14T05:50:46.775Z,12.90
2018-04-14T05:51:21.011Z,12.90
2018-04-14T05:51:54.481Z,12.90
2018-04-14T05:52:27.948Z,12.90
2018-04-14T05:53:02.170Z,12.90
2018-04-14T05:53:35.631Z,12.90
2018-04-14T05:54:09.873Z,13.00
2018-04-14T05:54:43.336Z,13.00
2018-04-14T05:55:16.798Z,13.00
2018-04-14T05:55:49.930Z,13.00
2018-04-14T05:56:23.399Z,13.00
2018-04-14T05:56:56.863Z,13.10
2018-04-14T05:57:31.092Z,13.10
2018-04-14T05:58:04.553Z,13.00
2018-04-14T05:58:38.768Z,13.10
2018-04-14T05:59:12.264Z,13.10
2018-04-14T05:59:45.720Z,13.10
2018-04-14T06:00:19.958Z,13.10
2018-04-14T06:00:53.427Z,13.10
2018-04-14T06:01:26.879Z,13.10
2018-04-14T06:02:01.116Z,13.10
2018-04-14T06:02:34.573Z,13.10
2018-04-14T06:03:08.800Z,13.10
2018-04-14T06:03:42.249Z,13.10
2018-04-14T06:04:15.509Z,13.10
2018-04-14T06:04:48.977Z,13.20
2018-04-14T06:05:22.433Z,13.10
2018-04-14T06:05:55.887Z,13.10
2018-04-14T06:06:29.343Z,13.10
2018-04-14T06:07:02.803Z,13.20
2018-04-14T06:07:36.253Z,13.20
2018-04-14T06:08:10.471Z,13.30
2018-04-14T06:08:43.943Z,13.30
2018-04-14T06:09:18.259Z,13.40
2018-04-14T06:09:51.850Z,13.40
2018-04-14T06:10:25.309Z,13.50
2018-04-14T06:10:59.539Z,13.60
2018-04-14T06:11:32.999Z,13.60
2018-04-14T06:12:07.233Z,13.70
2018-04-14T06:12:40.687Z,13.70
2018-04-14T06:13:14.917Z,13.90
2018-04-14T06:13:48.416Z,13.90
2018-04-14T06:14:21.894Z,14.00
2018-04-14T06:14:55.376Z,14.00
2018-04-14T06:15:28.831Z,14.10
2018-04-14T06:16:03.067Z,14.20
2018-04-14T06:16:36.517Z,14.20
2018-04-14T06:17:10.748Z,14.30
2018-04-14T06:17:44.214Z,14.20
2018-04-14T06:18:17.669Z,14.30
2018-04-14T06:18:51.129Z,14.30
2018-04-14T06:19:24.647Z,14.30
2018-04-14T06:19:58.101Z,14.20
2018-04-14T06:20:31.561Z,14.30
2018-04-14T06:21:05.009Z,14.20
2018-04-14T06:21:39.234Z,14.20
2018-04-14T06:22:12.718Z,14.20
2018-04-14T06:22:47.122Z,14.10
2018-04-14T06:23:20.575Z,14.10
2018-04-14T06:23:54.043Z,14.10
2018-04-14T06:24:27.297Z,14.10
2018-04-14T06:25:00.527Z,14.10
2018-04-14T06:25:34.537Z,14.10
2018-04-14T06:26:08.771Z,14.10
2018-04-14T06:26:41.903Z,14.10
2018-04-14T06:27:16.119Z,14.10
2018-04-14T06:27:50.345Z,14.10
2018-04-14T06:28:23.798Z,14.00
2018-04-14T06:28:58.017Z,14.10
2018-04-14T06:29:31.502Z,14.00
2018-04-14T06:30:04.341Z,14.10
2018-04-14T06:30:37.811Z,14.00
2018-04-14T06:31:11.263Z,14.00
2018-04-14T06:31:44.725Z,14.00
2018-04-14T06:32:18.185Z,13.90
2018-04-14T06:32:52.417Z,13.90
2018-04-14T06:33:25.904Z,13.90
2018-04-14T06:33:59.361Z,13.90
2018-04-14T06:34:33.597Z,13.80
2018-04-14T06:35:07.055Z,13.80
2018-04-14T06:35:41.293Z,13.70
2018-04-14T06:36:14.771Z,13.70
2018-04-14T06:36:48.220Z,13.70
2018-04-14T06:37:22.443Z,13.70
2018-04-14T06:37:55.895Z,13.70
2018-04-14T06:38:29.358Z,13.70
2018-04-14T06:39:02.810Z,13.70
2018-04-14T06:39:36.295Z,13.60
2018-04-14T06:40:09.751Z,13.60
2018-04-14T06:40:43.984Z,13.50
2018-04-14T06:41:17.456Z,13.50
2018-04-14T06:41:50.677Z,13.50
2018-04-14T06:42:23.945Z,13.50
2018-04-14T06:42:57.417Z,13.50
2018-04-14T06:43:30.863Z,13.40
2018-04-14T06:44:05.103Z,13.40
2018-04-14T06:44:38.770Z,13.40
2018-04-14T06:45:12.235Z,13.40
2018-04-14T06:45:46.460Z,13.50
2018-04-14T06:46:19.957Z,13.40
2018-04-14T06:46:54.141Z,13.50
2018-04-14T06:47:27.597Z,13.50
2018-04-14T06:48:01.058Z,13.50
2018-04-14T06:48:34.516Z,13.50
2018-04-14T06:49:07.971Z,13.50
2018-04-14T06:49:42.217Z,13.50
2018-04-14T06:50:15.673Z,13.50
2018-04-14T06:50:49.138Z,13.60
2018-04-14T06:51:23.381Z,13.60
2018-04-14T06:51:56.841Z,13.60
2018-04-14T06:52:30.299Z,13.60
2018-04-14T06:53:03.750Z,13.60
2018-04-14T06:53:37.209Z,13.70
2018-04-14T06:54:10.663Z,13.70
2018-04-14T06:54:44.905Z,13.70
2018-04-14T06:55:18.367Z,13.60
2018-04-14T06:55:51.837Z,13.70
2018-04-14T06:56:26.071Z,13.60
2018-04-14T06:56:59.541Z,13.60
2018-04-14T06:57:32.994Z,13.70
2018-04-14T06:58:06.446Z,13.70
2018-04-14T06:58:39.904Z,13.70
2018-04-14T06:59:13.375Z,13.70
2018-04-14T06:59:46.853Z,13.70
2018-04-14T07:00:21.082Z,13.70
2018-04-14T07:00:54.544Z,13.70
2018-04-14T07:01:28.767Z,13.80
2018-04-14T07:02:02.224Z,13.70
2018-04-14T07:02:36.457Z,13.80
2018-04-14T07:03:09.914Z,13.70
2018-04-14T07:03:44.140Z,13.80
2018-04-14T07:04:17.607Z,13.80
2018-04-14T07:04:51.102Z,13.80
2018-04-14T07:05:25.287Z,13.90
2018-04-14T07:05:59.275Z,13.80
2018-04-14T07:06:33.508Z,13.90
2018-04-14T07:07:06.968Z,13.90
2018-04-14T07:07:40.955Z,13.90
2018-04-14T07:08:14.947Z,13.90
2018-04-14T07:08:49.162Z,13.90
2018-04-14T07:09:23.391Z,13.90
2018-04-14T07:09:56.652Z,13.90
2018-04-14T07:10:30.867Z,13.90
2018-04-14T07:11:04.337Z,13.90
2018-04-14T07:11:38.564Z,13.90
2018-04-14T07:12:12.020Z,13.90
2018-04-14T07:12:46.252Z,13.90
2018-04-14T07:13:19.718Z,13.80
2018-04-14T07:13:52.943Z,13.80
2018-04-14T07:14:26.409Z,13.80
2018-04-14T07:14:59.886Z,13.80
2018-04-14T07:15:33.385Z,13.80
2018-04-14T07:16:06.850Z,13.80
2018-04-14T07:16:40.320Z,13.80
2018-04-14T07:17:13.787Z,13.80
2018-04-14T07:17:48.002Z,13.80
2018-04-14T07:18:22.224Z,13.70
2018-04-14T07:18:55.695Z,13.70
2018-04-14T07:19:29.158Z,13.70
2018-04-14T07:20:03.416Z,13.70
2018-04-14T07:20:36.904Z,13.70
2018-04-14T07:21:10.544Z,13.70
2018-04-14T07:21:44.782Z,13.80
2018-04-14T07:22:18.237Z,13.70
2018-04-14T07:22:52.469Z,13.80
2018-04-14T07:23:25.944Z,13.80
2018-04-14T07:24:00.631Z,13.90
2018-04-14T07:24:34.863Z,13.90
2018-04-14T07:25:08.405Z,13.90
2018-04-14T07:25:42.656Z,14.00
2018-04-14T07:26:16.120Z,13.90
2018-04-14T07:26:49.613Z,14.00
2018-04-14T07:27:23.233Z,14.00
2018-04-14T07:27:56.694Z,14.00
2018-04-14T07:28:30.168Z,14.10
2018-04-14T07:29:03.643Z,14.10
2018-04-14T07:29:37.875Z,14.20
2018-04-14T07:30:11.382Z,14.10
2018-04-14T07:30:44.858Z,14.20
2018-04-14T07:31:18.320Z,14.20
2018-04-14T07:31:51.792Z,14.20
2018-04-14T07:32:25.303Z,14.20
2018-04-14T07:32:59.702Z,14.20
2018-04-14T07:33:33.152Z,14.20
2018-04-14T07:34:07.368Z,14.20
2018-04-14T07:34:40.599Z,14.20
2018-04-14T07:35:14.080Z,14.20
2018-04-14T07:35:48.272Z,14.20
2018-04-14T07:36:21.737Z,14.20
2018-04-14T07:36:55.197Z,14.20
2018-04-14T07:37:29.454Z,14.20
2018-04-14T07:38:03.095Z,14.20
2018-04-14T07:38:36.565Z,14.20
2018-04-14T07:39:10.799Z,14.20
2018-04-14T07:39:44.053Z,14.20
2018-04-14T07:40:18.318Z,14.20
2018-04-14T07:40:51.781Z,14.20
2018-04-14T07:41:25.254Z,14.20
2018-04-14T07:41:58.707Z,14.20
2018-04-14T07:42:32.932Z,14.20
2018-04-14T07:43:06.394Z,14.10
2018-04-14T07:43:40.616Z,14.10
2018-04-14T07:44:14.602Z,14.10
2018-04-14T07:44:48.061Z,14.10
2018-04-14T07:45:21.555Z,14.10
2018-04-14T07:45:55.794Z,14.10
2018-04-14T07:46:29.262Z,14.00
2018-04-14T07:47:03.501Z,14.00
2018-04-14T07:47:36.958Z,14.00
2018-04-14T07:48:10.424Z,14.00
2018-04-14T07:48:44.642Z,14.00
2018-04-14T07:49:18.083Z,14.10
2018-04-14T07:49:51.533Z,14.10
2018-04-14T07:50:25.037Z,14.10
2018-04-14T07:50:58.494Z,14.20
2018-04-14T07:51:31.955Z,14.20
2018-04-14T07:52:06.200Z,14.30
2018-04-14T07:52:39.703Z,14.30
2018-04-14T07:53:13.323Z,14.40
2018-04-14T07:53:46.989Z,14.40
2018-04-14T07:54:20.451Z,14.50
2018-04-14T07:54:53.903Z,14.50
2018-04-14T07:55:27.409Z,14.60
2018-04-14T07:56:00.871Z,14.60
2018-04-14T07:56:34.331Z,14.60
2018-04-14T07:57:08.564Z,14.70
2018-04-14T07:57:41.798Z,14.70
2018-04-14T07:58:15.049Z,14.70
2018-04-14T07:58:48.529Z,14.70
2018-04-14T07:59:21.982Z,14.70
2018-04-14T07:59:55.436Z,14.80
2018-04-14T08:00:28.704Z,14.80
2018-04-14T08:01:02.162Z,14.90
2018-04-14T08:01:35.625Z,14.90
2018-04-14T08:02:09.093Z,15.00
2018-04-14T08:02:42.566Z,15.00
2018-04-14T08:03:16.566Z,15.00
2018-04-14T08:03:50.777Z,15.10
2018-04-14T08:04:25.001Z,15.00
2018-04-14T08:04:58.468Z,15.00
2018-04-14T08:05:31.614Z,15.00
2018-04-14T08:06:04.762Z,15.00
2018-04-14T08:06:38.230Z,15.00
2018-04-14T08:07:11.690Z,15.00
2018-04-14T08:07:45.176Z,15.00
2018-04-14T08:08:18.630Z,15.00
2018-04-14T08:08:52.094Z,15.00